Time;durP1;ratioP1;P1;durP2;ratioP2;P2;SDS_P1;SDS_P2;PMS_P1;PMS_P2;Temp;Humidity;BMP_temperature;BMP_pressure;BME280_temperature;BME280_humidity;BME280_pressure;Samples;Min_cycle;Max_cycle;Signal;HPM_P1;HPM_P2
2023/11/17 00:05:01;;;;;;;9.73;1.80;;;;;;;4.69;100.00;100368.50;4766872;30;20435;-96
2023/11/17 00:20:17;;;;;;;;;;;;;;;;;;;;;
2023/11/17 00:24:02;;;;;;;;;;;;;;;;;;;;;
2023/11/17 00:32:18;;;;;;;17.13;2.45;;;;;;;4.82;100.00;100380.72;4952474;28;20035;-96
2023/11/17 00:35:53;;;;;;;14.50;2.50;;;;;;;4.93;100.00;100377.34;4871832;29;20158;-96
2023/11/17 00:52:01;;;;;;;16.33;2.40;;;;;;;5.13;100.00;100389.00;4869740;29;20105;-96
2023/11/17 00:56:10;;;;;;;12.10;2.10;;;;;;;5.17;100.00;100387.84;4852458;29;20061;-96
2023/11/17 01:11:56;;;;;;;19.35;1.95;;;;;;;5.24;100.00;100385.59;4908181;29;20608;-96
2023/11/17 01:14:22;;;;;;;12.95;1.80;;;;;;;5.24;100.00;100392.66;4887099;29;20044;-96
2023/11/17 01:16:49;;;;;;;20.25;2.70;;;;;;;5.23;100.00;100386.56;4890640;29;20138;-96
2023/11/17 01:19:40;;;;;;;14.95;2.40;;;;;;;5.29;100.00;100388.75;4946461;29;20490;-96
2023/11/17 01:22:06;;;;;;;16.65;2.00;;;;;;;5.34;100.00;100383.16;4927710;29;20046;-96
2023/11/17 01:24:36;;;;;;;10.90;2.03;;;;;;;5.33;100.00;100390.22;4925474;28;20047;-96
2023/11/17 01:27:04;;;;;;;16.83;4.32;;;;;;;5.38;100.00;100386.41;4975327;28;20558;-96
2023/11/17 01:29:59;;;;;;;15.38;2.30;;;;;;;5.44;100.00;100384.19;4961625;28;20038;-96
2023/11/17 01:32:50;;;;;;;12.98;2.50;;;;;;;5.41;100.00;100368.69;4992150;28;20048;-96
2023/11/17 01:35:17;;;;;;;12.38;2.10;;;;;;;5.43;100.00;100389.53;4956556;28;20037;-96
2023/11/17 01:37:45;;;;;;;13.80;2.10;;;;;;;5.41;100.00;100404.53;4972640;28;20050;-96
2023/11/17 01:40:15;;;;;;;11.00;1.50;;;;;;;5.46;100.00;100415.53;4969939;28;20037;-96
2023/11/17 01:43:11;;;;;;;16.30;2.25;;;;;;;5.52;100.00;100404.59;5130745;23;20054;-95
2023/11/17 01:45:40;;;;;;;17.20;3.17;;;;;;;5.57;100.00;100393.75;4988039;28;20048;-96
2023/11/17 01:48:17;;;;;;;16.67;2.40;;;;;;;5.68;100.00;100391.19;5009601;23;20089;-96
2023/11/17 01:50:43;;;;;;;12.70;1.65;;;;;;;5.76;100.00;100392.41;4980389;28;20113;-95
2023/11/17 01:54:05;;;;;;;;;;;;;;;;;;;;;
2023/11/17 01:57:08;;;;;;;18.33;2.97;;;;;;;5.93;100.00;100389.34;4965426;28;20096;-96
2023/11/17 02:04:13;;;;;;;9.75;2.15;;;;;;;5.96;100.00;100401.38;4987507;28;20508;-96
2023/11/17 02:11:35;;;;;;;13.05;1.80;;;;;;;5.87;100.00;100409.97;4873413;29;20059;-96
2023/11/17 02:14:18;;;;;;;13.05;1.98;;;;;;;5.86;100.00;100421.41;4865101;29;20040;-96
2023/11/17 02:16:47;;;;;;;15.57;1.98;;;;;;;5.81;100.00;100422.56;4879079;29;20522;-96
2023/11/17 02:20:11;;;;;;;14.15;2.13;;;;;;;5.81;100.00;100416.50;4921699;29;20050;-96
2023/11/17 02:28:10;;;;;;;12.27;1.75;;;;;;;5.63;100.00;100416.91;4914243;29;20459;-96
2023/11/17 02:38:25;;;;;;;23.95;2.28;;;;;;;5.53;100.00;100406.25;4908428;29;20099;-96
2023/11/17 02:41:08;;;;;;;19.02;2.53;;;;;;;5.44;100.00;100407.78;4922624;29;20040;-96
2023/11/17 02:43:50;;;;;;;16.35;1.98;;;;;;;5.49;100.00;100417.06;4924476;28;20054;-96
2023/11/17 02:46:26;;;;;;;15.82;2.67;;;;;;;5.36;100.00;100404.88;4962677;28;20085;-96
2023/11/17 02:48:55;;;;;;;16.85;2.28;;;;;;;5.37;100.00;100410.97;4971663;28;20046;-96
2023/11/17 02:51:22;;;;;;;16.17;2.33;;;;;;;5.33;100.00;100407.72;4960987;28;20477;-96
2023/11/17 02:53:49;;;;;;;13.40;1.88;;;;;;;5.33;100.00;100412.94;4960075;28;20030;-96
2023/11/17 02:56:22;;;;;;;16.20;2.65;;;;;;;5.33;100.00;100408.56;4954595;28;20125;-96
2023/11/17 02:58:54;;;;;;;13.02;2.15;;;;;;;5.31;100.00;100420.09;4973704;28;20034;-95
2023/11/17 03:01:24;;;;;;;14.10;2.83;;;;;;;5.31;100.00;100420.09;4955510;28;20030;-96
2023/11/17 03:03:50;;;;;;;21.67;2.42;;;;;;;5.27;100.00;100426.50;4977514;28;20038;-96
2023/11/17 03:06:16;;;;;;;12.85;1.98;;;;;;;5.29;100.00;100438.53;4959731;28;20041;-96
2023/11/17 03:08:42;;;;;;;15.23;1.92;;;;;;;5.28;100.00;100438.66;4974839;28;20092;-96
2023/11/17 03:11:09;;;;;;;15.50;2.03;;;;;;;5.31;100.00;100446.28;4970695;28;20468;-96
2023/11/17 03:13:37;;;;;;;16.23;1.83;;;;;;;5.27;100.00;100444.84;4960719;28;20062;-96
2023/11/17 03:16:03;;;;;;;17.38;1.85;;;;;;;5.24;100.00;100443.25;4978027;28;20038;-96
2023/11/17 03:18:38;;;;;;;13.52;2.15;;;;;;;5.27;100.00;100445.66;4964819;28;20036;-96
2023/11/17 03:21:04;;;;;;;16.67;2.72;;;;;;;5.28;100.00;100446.50;4981069;28;20034;-96
2023/11/17 03:23:32;;;;;;;12.13;2.22;;;;;;;5.29;100.00;100451.66;4962675;28;20036;-96
2023/11/17 03:26:01;;;;;;;16.13;2.45;;;;;;;5.30;100.00;100448.06;4990861;28;20041;-96
2023/11/17 03:28:28;;;;;;;18.42;2.45;;;;;;;5.28;100.00;100457.00;4976569;28;20157;-96
2023/11/17 03:30:55;;;;;;;14.68;4.25;;;;;;;5.27;100.00;100463.19;4963568;28;20030;-96
2023/11/17 03:33:22;;;;;;;15.25;1.85;;;;;;;5.24;100.00;100459.00;4974100;28;20030;-96
2023/11/17 03:35:49;;;;;;;14.68;2.15;;;;;;;5.21;100.00;100456.59;4979979;28;20394;-95
2023/11/17 03:38:15;;;;;;;21.95;2.83;;;;;;;5.15;100.00;100451.78;4965556;28;20042;-96
2023/11/17 03:40:47;;;;;;;15.15;2.03;;;;;;;5.16;100.00;100443.00;4971603;28;20034;-96
2023/11/17 03:43:13;;;;;;;9.77;1.65;;;;;;;5.12;100.00;100454.63;4976397;28;20120;-95
2023/11/17 03:45:48;;;;;;;12.85;1.83;;;;;;;5.07;100.00;100454.94;4968585;28;20034;-96
2023/11/17 03:48:14;;;;;;;17.25;1.88;;;;;;;4.97;100.00;100452.13;4957738;28;20053;-95
2023/11/17 03:50:42;;;;;;;9.40;1.55;;;;;;;4.96;100.00;100451.31;4948439;28;20034;-96
2023/11/17 03:53:08;;;;;;;13.57;2.40;;;;;;;4.93;100.00;100453.31;4945345;28;20034;-96
2023/11/17 03:55:34;;;;;;;10.15;1.63;;;;;;;4.93;100.00;100450.69;4971336;28;20037;-96
2023/11/17 03:58:00;;;;;;;6.82;1.30;;;;;;;4.91;100.00;100455.19;4961247;28;20050;-96
2023/11/17 04:00:27;;;;;;;8.57;1.40;;;;;;;4.86;100.00;100465.16;4947841;28;20042;-96
2023/11/17 04:02:53;;;;;;;13.98;1.70;;;;;;;4.80;100.00;100459.41;4945394;28;20046;-96
2023/11/17 04:05:19;;;;;;;11.60;1.75;;;;;;;4.79;100.00;100462.13;4965230;28;20045;-96
2023/11/17 04:07:48;;;;;;;19.55;2.17;;;;;;;4.75;100.00;100444.94;4980658;28;20083;-96
2023/11/17 04:10:14;;;;;;;17.00;2.17;;;;;;;4.77;100.00;100454.38;4953418;28;20054;-96
2023/11/17 04:12:40;;;;;;;10.15;1.83;;;;;;;4.77;100.00;100450.91;4934900;28;20042;-96
2023/11/17 04:15:07;;;;;;;12.32;1.83;;;;;;;4.77;100.00;100464.84;4940733;28;20097;-96
2023/11/17 04:17:35;;;;;;;17.45;2.60;;;;;;;4.79;100.00;100459.50;4955738;28;20041;-96
2023/11/17 04:20:02;;;;;;;10.77;1.48;;;;;;;4.76;100.00;100478.03;4960104;28;20034;-96
2023/11/17 04:22:29;;;;;;;16.52;2.42;;;;;;;4.71;100.00;100473.94;4942157;28;20035;-96
2023/11/17 04:24:55;;;;;;;15.23;2.28;;;;;;;4.77;100.00;100471.84;4946683;28;20631;-96
2023/11/17 04:27:21;;;;;;;12.70;1.77;;;;;;;4.74;100.00;100462.44;4960672;28;20059;-96
2023/11/17 04:29:46;;;;;;;18.67;2.80;;;;;;;4.80;100.00;100482.97;4942220;28;20074;-96
2023/11/17 04:32:12;;;;;;;14.30;2.17;;;;;;;4.83;100.00;100476.66;4948310;28;20034;-96
2023/11/17 04:34:39;;;;;;;13.18;1.85;;;;;;;4.81;100.00;100479.41;4962294;28;20674;-96
2023/11/17 04:37:05;;;;;;;12.57;2.13;;;;;;;4.86;100.00;100500.03;4947678;28;20406;-96
2023/11/17 04:39:31;;;;;;;13.18;1.80;;;;;;;4.89;100.00;100499.00;4984624;28;20424;-96
2023/11/17 04:41:58;;;;;;;19.27;2.95;;;;;;;4.90;100.00;100504.13;4947517;28;20034;-96
2023/11/17 04:44:24;;;;;;;11.20;1.48;;;;;;;4.93;100.00;100498.69;4960897;28;20129;-96
2023/11/17 04:46:49;;;;;;;17.35;1.70;;;;;;;4.96;100.00;100489.75;4942592;28;20035;-96
2023/11/17 04:49:15;;;;;;;14.73;1.73;;;;;;;4.95;100.00;100486.28;4954474;28;20054;-96
2023/11/17 04:51:46;;;;;;;19.35;1.73;;;;;;;5.04;100.00;100492.69;4971300;28;20030;-96
2023/11/17 04:54:14;;;;;;;15.98;1.83;;;;;;;5.03;100.00;100500.66;4977266;28;20034;-96
2023/11/17 04:56:41;;;;;;;14.43;1.63;;;;;;;5.02;100.00;100496.34;4960796;28;20176;-96
2023/11/17 04:59:10;;;;;;;23.42;2.13;;;;;;;5.02;100.00;100499.81;4980586;28;20500;-95
2023/11/17 05:01:37;;;;;;;12.55;1.58;;;;;;;4.99;100.00;100492.16;4984654;28;20030;-96
2023/11/17 05:04:03;;;;;;;10.73;1.75;;;;;;;4.99;100.00;100500.03;4971251;28;20049;-96
2023/11/17 05:06:29;;;;;;;11.50;2.35;;;;;;;4.95;100.00;100504.63;4957378;28;20030;-95
2023/11/17 05:08:55;;;;;;;14.07;1.88;;;;;;;4.92;100.00;100496.16;4964934;28;20053;-96
2023/11/17 05:11:23;;;;;;;7.95;1.60;;;;;;;4.89;100.00;100504.25;4964530;28;20033;-96
2023/11/17 05:13:49;;;;;;;11.23;1.60;;;;;;;4.91;100.00;100507.56;4967611;28;20053;-96
2023/11/17 05:16:15;;;;;;;17.13;1.40;;;;;;;4.92;100.00;100514.50;4964280;28;20049;-95
2023/11/17 05:18:42;;;;;;;23.83;1.73;;;;;;;4.88;100.00;100503.38;4970020;28;20057;-96
2023/11/17 05:21:09;;;;;;;13.88;1.63;;;;;;;4.81;100.00;100513.44;4963408;28;20110;-96
2023/11/17 05:23:35;;;;;;;12.20;2.47;;;;;;;4.77;100.00;100500.66;4960609;28;20034;-96
2023/11/17 05:26:01;;;;;;;13.82;2.22;;;;;;;4.76;100.00;100509.47;4963221;28;20033;-96
2023/11/17 05:28:27;;;;;;;12.60;2.25;;;;;;;4.76;100.00;100512.09;4955812;28;20158;-96
2023/11/17 05:30:58;;;;;;;9.25;1.58;;;;;;;4.74;100.00;100511.34;4977769;28;20037;-96
2023/11/17 05:33:25;;;;;;;14.00;2.42;;;;;;;4.73;100.00;100518.34;4964581;28;20046;-96
2023/11/17 05:35:50;;;;;;;7.40;1.50;;;;;;;4.71;100.00;100518.47;4976659;28;20042;-96
2023/11/17 05:38:16;;;;;;;8.90;1.55;;;;;;;4.65;100.00;100520.69;4981411;28;20037;-95
2023/11/17 05:40:42;;;;;;;5.43;1.40;;;;;;;4.61;100.00;100529.66;4966334;28;20031;-96
2023/11/17 05:43:08;;;;;;;15.88;1.75;;;;;;;4.57;100.00;100535.09;4960499;28;20113;-96
2023/11/17 05:45:34;;;;;;;14.40;1.30;;;;;;;4.54;100.00;100532.69;4987303;28;20736;-96
2023/11/17 05:48:00;;;;;;;12.65;1.85;;;;;;;4.52;100.00;100531.13;4962972;28;20511;-96
2023/11/17 05:50:25;;;;;;;7.45;1.17;;;;;;;4.54;100.00;100518.78;4965532;28;20088;-96
2023/11/17 05:52:51;;;;;;;9.43;1.48;;;;;;;4.59;100.00;100529.78;4965620;28;20038;-95
2023/11/17 05:55:17;;;;;;;7.47;1.27;;;;;;;4.57;100.00;100529.88;4961466;28;20025;-96
2023/11/17 05:57:44;;;;;;;5.88;0.93;;;;;;;4.54;100.00;100522.22;4964442;28;20527;-96
2023/11/17 06:00:13;;;;;;;7.30;1.45;;;;;;;4.52;100.00;100524.13;4967908;28;20056;-96
2023/11/17 06:02:40;;;;;;;36.35;18.83;;;;;;;4.41;100.00;100532.66;4992095;28;20081;-94
2023/11/17 06:05:08;;;;;;;10.52;2.08;;;;;;;4.36;100.00;100523.47;4994639;28;20042;-96
2023/11/17 06:07:34;;;;;;;17.08;1.70;;;;;;;4.36;100.00;100523.47;4956088;28;20049;-96
2023/11/17 06:10:00;;;;;;;17.50;2.42;;;;;;;4.29;100.00;100539.56;4971318;28;20042;-96
2023/11/17 06:12:27;;;;;;;13.88;1.95;;;;;;;4.27;100.00;100535.38;4971589;28;20065;-96
2023/11/17 06:14:52;;;;;;;13.48;1.45;;;;;;;4.24;100.00;100538.22;4952019;28;20039;-96
2023/11/17 06:17:19;;;;;;;13.77;2.60;;;;;;;4.28;100.00;100545.75;4959199;28;20041;-96
2023/11/17 06:19:45;;;;;;;11.05;1.77;;;;;;;4.29;100.00;100544.81;4973271;28;20038;-96
2023/11/17 06:22:11;;;;;;;14.63;1.65;;;;;;;4.35;100.00;100551.41;4953645;28;20042;-96
2023/11/17 06:24:37;;;;;;;11.60;2.42;;;;;;;4.41;100.00;100561.47;4951461;28;20037;-96
2023/11/17 06:27:04;;;;;;;14.50;2.35;;;;;;;4.48;100.00;100559.28;4955021;28;20041;-96
2023/11/17 06:29:30;;;;;;;16.65;2.03;;;;;;;4.53;100.00;100570.28;4976377;28;20145;-96
2023/11/17 06:31:56;;;;;;;10.35;1.55;;;;;;;4.50;100.00;100564.41;4972390;28;20031;-96
2023/11/17 06:34:22;;;;;;;9.23;1.75;;;;;;;4.55;100.00;100559.72;4975019;28;20085;-96
2023/11/17 06:36:51;;;;;;;6.25;1.48;;;;;;;4.53;100.00;100551.97;4950093;28;20035;-96
2023/11/17 06:39:21;;;;;;;11.07;1.40;;;;;;;4.57;100.00;100555.22;4935093;28;20043;-96
2023/11/17 06:41:49;;;;;;;10.35;1.40;;;;;;;4.59;100.00;100561.19;4948022;28;20032;-96
2023/11/17 06:44:16;;;;;;;10.65;1.17;;;;;;;4.56;100.00;100567.47;4956488;28;20039;-96
2023/11/17 06:46:44;;;;;;;8.25;1.58;;;;;;;4.50;100.00;100559.19;4953074;28;20455;-96
2023/11/17 06:49:09;;;;;;;11.00;2.83;;;;;;;4.51;100.00;100571.34;4971501;28;20088;-95
2023/11/17 06:51:40;;;;;;;6.68;1.33;;;;;;;4.47;100.00;100558.44;4975696;28;20501;-96
2023/11/17 06:54:10;;;;;;;8.43;1.25;;;;;;;4.49;100.00;100567.97;4957702;28;20559;-95
2023/11/17 06:56:40;;;;;;;11.00;1.58;;;;;;;4.44;100.00;100579.56;4955693;28;20511;-96
2023/11/17 06:59:17;;;;;;;11.70;1.80;;;;;;;4.51;100.00;100581.81;4972947;28;20038;-96
2023/11/17 07:01:44;;;;;;;13.02;1.33;;;;;;;4.42;100.00;100584.09;4938821;28;20038;-96
2023/11/17 07:04:13;;;;;;;15.45;1.48;;;;;;;4.37;100.00;100587.94;4953657;28;20038;-91
2023/11/17 07:06:40;;;;;;;11.07;2.20;;;;;;;4.37;100.00;100590.56;4945113;28;20567;-96
2023/11/17 07:09:16;;;;;;;11.32;1.58;;;;;;;4.37;100.00;100590.56;4958754;28;20034;-95
2023/11/17 07:11:47;;;;;;;9.80;1.35;;;;;;;4.39;100.00;100591.31;4955436;28;20141;-95
2023/11/17 07:14:13;;;;;;;11.82;1.35;;;;;;;4.24;100.00;100582.69;4955925;28;20056;-95
2023/11/17 07:16:41;;;;;;;9.88;1.75;;;;;;;4.23;100.00;100589.69;4964437;28;20045;-95
2023/11/17 07:19:08;;;;;;;10.63;1.20;;;;;;;4.18;100.00;100578.66;4946301;28;20045;-96
2023/11/17 07:21:37;;;;;;;7.47;1.27;;;;;;;4.18;100.00;100584.75;4970946;28;20403;-96
2023/11/17 07:24:06;;;;;;;8.55;1.30;;;;;;;4.14;100.00;100579.81;4957808;28;20496;-96
2023/11/17 07:26:38;;;;;;;10.95;1.63;;;;;;;4.08;100.00;100574.03;4955342;28;20039;-96
2023/11/17 07:29:05;;;;;;;8.90;1.25;;;;;;;4.01;100.00;100578.00;4944348;28;20034;-96
2023/11/17 07:31:37;;;;;;;13.40;1.50;;;;;;;3.95;100.00;100579.22;4957182;28;20054;-96
2023/11/17 07:34:07;;;;;;;7.95;1.15;;;;;;;3.89;100.00;100574.38;4958443;28;20038;-96
2023/11/17 07:36:37;;;;;;;15.07;1.40;;;;;;;3.89;100.00;100576.13;4952330;28;20030;-94
2023/11/17 07:39:03;;;;;;;16.67;1.60;;;;;;;3.86;100.00;100574.56;4977026;28;20120;-96
2023/11/17 07:41:29;;;;;;;8.23;1.00;;;;;;;3.88;100.00;100566.63;4985322;28;20046;-95
2023/11/17 07:43:56;;;;;;;9.90;1.17;;;;;;;3.85;100.00;100575.50;4955166;28;20037;-96
2023/11/17 07:46:24;;;;;;;5.28;0.90;;;;;;;3.85;100.00;100575.50;4959122;28;20145;-96
2023/11/17 07:48:51;;;;;;;7.70;1.38;;;;;;;3.86;100.00;100574.56;4965351;28;20046;-95
2023/11/17 07:51:17;;;;;;;5.55;1.13;;;;;;;3.84;100.00;100576.44;4963758;28;20038;-96
2023/11/17 07:53:43;;;;;;;10.02;1.20;;;;;;;3.78;100.00;100568.97;4957385;28;20034;-96
2023/11/17 07:56:12;;;;;;;8.63;1.27;;;;;;;3.80;100.00;100588.03;4987738;28;20093;-96
2023/11/17 07:59:28;;;;;;;7.25;1.30;;;;;;;3.78;100.00;100574.22;4977928;28;20459;-96
2023/11/17 08:01:56;;;;;;;8.48;1.00;;;;;;;3.67;100.00;100573.13;4961956;28;20040;-96
2023/11/17 08:04:22;;;;;;;10.43;1.20;;;;;;;3.70;100.00;100603.44;4961767;28;20040;-95
2023/11/17 08:06:48;;;;;;;11.13;1.42;;;;;;;3.67;100.00;100601.88;4963610;28;20035;-96
2023/11/17 08:09:16;;;;;;;18.92;2.17;;;;;;;3.64;100.00;100615.13;4962334;28;20061;-96
2023/11/17 08:11:42;;;;;;;20.42;5.72;;;;;;;3.63;100.00;100613.44;4978887;28;20030;-95
2023/11/17 08:17:47;;;;;;;8.02;1.65;;;;;;;3.67;100.00;100622.78;4964937;28;20042;-95
2023/11/17 08:20:14;;;;;;;15.32;2.17;;;;;;;3.71;100.00;100615.59;4982730;28;20034;-95
2023/11/17 08:22:42;;;;;;;13.75;3.78;;;;;;;3.80;100.00;100620.25;4976981;28;20046;-96
2023/11/17 08:25:08;;;;;;;10.10;3.17;;;;;;;3.87;100.00;100614.66;4946516;28;20485;-96
2023/11/17 08:27:34;;;;;;;8.98;1.30;;;;;;;3.90;100.00;100606.59;4958888;28;20037;-95
2023/11/17 08:29:59;;;;;;;12.57;1.85;;;;;;;3.92;100.00;100613.41;4967680;28;20042;-96
2023/11/17 08:32:25;;;;;;;7.20;1.30;;;;;;;3.93;100.00;100625.56;4959893;28;20034;-95
2023/11/17 08:34:51;;;;;;;12.23;1.70;;;;;;;3.93;100.00;100625.56;4977930;28;20041;-95
2023/11/17 08:37:17;;;;;;;17.88;4.07;;;;;;;4.00;100.00;100633.84;4975725;28;20031;-94
2023/11/17 08:39:42;;;;;;;11.68;2.30;;;;;;;3.97;100.00;100634.03;4961049;28;20544;-95
2023/11/17 08:42:08;;;;;;;9.27;1.92;;;;;;;3.99;100.00;100636.56;4996255;28;20034;-95
2023/11/17 08:44:34;;;;;;;31.83;7.43;;;;;;;4.00;100.00;100644.31;4950882;28;20118;-95
2023/11/17 08:47:01;;;;;;;136.13;3.67;;;;;;;3.99;100.00;100637.41;4973364;28;20035;-94
2023/11/17 08:49:27;;;;;;;72.10;2.78;;;;;;;3.89;100.00;100636.28;4990528;28;20518;-94
2023/11/17 08:51:53;;;;;;;39.28;1.85;;;;;;;3.86;100.00;100639.94;4957144;28;20034;-94
2023/11/17 08:54:18;;;;;;;13.48;2.10;;;;;;;3.91;100.00;100644.88;4962206;28;20045;-94
2023/11/17 08:56:48;;;;;;;12.43;1.63;;;;;;;3.94;100.00;100644.69;4948012;28;20026;-94
2023/11/17 08:59:14;;;;;;;10.07;2.35;;;;;;;4.04;100.00;100658.03;4948182;28;20048;-94
2023/11/17 09:01:41;;;;;;;11.43;2.42;;;;;;;4.11;100.00;100654.09;4966482;28;20042;-94
2023/11/17 09:04:07;;;;;;;6.28;1.13;;;;;;;4.21;100.00;100654.34;4957330;28;20117;-94
2023/11/17 09:06:33;;;;;;;5.50;1.00;;;;;;;4.34;100.00;100657.03;4983968;28;20093;-94
2023/11/17 09:09:03;;;;;;;8.32;1.33;;;;;;;4.38;100.00;100655.88;4975944;28;20121;-94
2023/11/17 09:11:32;;;;;;;8.93;1.67;;;;;;;4.43;100.00;100655.59;4974748;28;20047;-94
2023/11/17 09:13:59;;;;;;;14.48;2.67;;;;;;;4.40;100.00;100661.88;4970263;28;20054;-94
2023/11/17 09:16:25;;;;;;;12.52;1.60;;;;;;;4.38;100.00;100660.28;4970830;28;20042;-94
2023/11/17 09:18:51;;;;;;;5.40;1.52;;;;;;;4.38;100.00;100663.72;4968947;28;20030;-94
2023/11/17 09:21:17;;;;;;;16.17;1.10;;;;;;;4.45;100.00;100670.28;4961489;28;20022;-94
2023/11/17 09:23:42;;;;;;;10.18;2.03;;;;;;;4.49;100.00;100675.31;4972928;28;20038;-93
2023/11/17 09:26:08;;;;;;;38.88;1.73;;;;;;;4.45;100.00;100677.28;4945830;28;20433;-94
2023/11/17 09:28:34;;;;;;;16.48;0.90;;;;;;;4.36;100.00;100676.09;4949347;28;20038;-94
2023/11/17 09:31:00;;;;;;;7.45;0.93;;;;;;;4.37;100.00;100685.63;4938579;28;20046;-94
2023/11/17 09:33:27;;;;;;;5.07;1.85;;;;;;;4.35;100.00;100679.63;4976799;28;20045;-95
2023/11/17 09:36:00;;;;;;;3.50;1.17;;;;;;;4.42;100.00;100677.47;4974460;28;20419;-94
2023/11/17 09:38:26;;;;;;;17.55;1.73;;;;;;;4.51;100.00;100678.69;4979307;28;20030;-94
2023/11/17 09:40:53;;;;;;;9.55;3.05;;;;;;;4.64;100.00;100674.31;4945511;28;20553;-94
2023/11/17 09:43:20;;;;;;;6.22;1.00;;;;;;;4.76;100.00;100687.53;4965758;28;20121;-94
2023/11/17 09:45:47;;;;;;;6.65;1.08;;;;;;;4.84;100.00;100698.38;4946946;28;20034;-94
2023/11/17 09:48:14;;;;;;;6.25;1.92;;;;;;;4.88;100.00;100697.22;4964383;28;20042;-94
2023/11/17 09:50:41;;;;;;;9.02;2.55;;;;;;;4.93;100.00;100710.00;4967502;28;20038;-94
2023/11/17 09:53:09;;;;;;;4.85;1.70;;;;;;;4.94;100.00;100706.44;4959280;28;20117;-94
2023/11/17 09:55:38;;;;;;;5.43;1.98;;;;;;;5.00;100.00;100698.16;4975360;28;20049;-94
2023/11/17 09:58:06;;;;;;;7.55;1.20;;;;;;;5.07;100.00;100704.69;4971827;28;20433;-95
2023/11/17 10:00:36;;;;;;;8.32;1.83;;;;;;;5.12;100.00;100701.78;4952677;28;20145;-94
2023/11/17 10:03:04;;;;;;;12.85;2.15;;;;;;;5.17;100.00;100693.59;4958738;28;20026;-95
2023/11/17 10:05:31;;;;;;;12.73;1.80;;;;;;;5.27;100.00;100696.44;4953570;28;20504;-94
2023/11/17 10:08:04;;;;;;;12.15;3.58;;;;;;;5.36;100.00;100681.88;4964263;28;20088;-94
2023/11/17 10:10:56;;;;;;;10.18;1.50;;;;;;;5.50;100.00;100694.88;4976591;28;20377;-95
2023/11/17 10:13:25;;;;;;;15.52;3.25;;;;;;;5.54;100.00;100696.34;4955340;28;20034;-94
2023/11/17 10:15:51;;;;;;;18.65;5.25;;;;;;;5.56;100.00;100696.22;4974799;28;20038;-93
2023/11/17 10:18:24;;;;;;;15.15;4.13;;;;;;;5.63;100.00;100691.41;4958310;28;20042;-94
2023/11/17 10:20:50;;;;;;;16.33;5.53;;;;;;;5.61;100.00;100688.03;4972419;28;20042;-93
2023/11/17 10:23:17;;;;;;;12.40;2.47;;;;;;;5.69;100.00;100686.59;4947992;28;20030;-93
2023/11/17 10:25:43;;;;;;;11.35;2.28;;;;;;;5.75;100.00;100682.69;4965552;28;20384;-93
2023/11/17 10:28:10;;;;;;;10.70;2.00;;;;;;;5.78;100.00;100679.03;4976465;28;20026;-93
2023/11/17 10:30:37;;;;;;;9.00;2.25;;;;;;;5.81;100.00;100676.19;4942493;28;20041;-94
2023/11/17 10:33:26;;;;;;;9.15;1.85;;;;;;;5.89;100.00;100684.34;4954906;28;20027;-93
2023/11/17 10:36:04;;;;;;;10.73;2.08;;;;;;;5.97;100.00;100686.44;4974768;28;20046;-93
2023/11/17 10:38:34;;;;;;;12.68;1.90;;;;;;;5.99;100.00;100691.59;4983955;28;20133;-93
2023/11/17 10:41:14;;;;;;;10.73;2.05;;;;;;;6.11;100.00;100682.03;4949238;28;20034;-93
2023/11/17 10:43:49;;;;;;;13.02;2.72;;;;;;;6.09;100.00;100682.13;4960501;28;20049;-93
2023/11/17 10:46:21;;;;;;;11.38;4.00;;;;;;;6.00;100.00;100685.38;4974768;28;20090;-93
2023/11/17 10:48:50;;;;;;;15.80;2.92;;;;;;;6.00;100.00;100682.75;4944941;28;20484;-93
2023/11/17 10:51:18;;;;;;;13.98;3.28;;;;;;;6.04;100.00;100687.72;4954520;28;20035;-93
2023/11/17 10:54:04;;;;;;;11.65;2.90;;;;;;;6.19;100.00;100684.94;4973563;28;20038;-93
2023/11/17 10:56:30;;;;;;;15.23;3.60;;;;;;;6.20;100.00;100684.84;4962927;28;20039;-96
2023/11/17 10:58:58;;;;;;;20.17;3.42;;;;;;;6.23;100.00;100693.44;4970574;28;20034;-96
2023/11/17 11:01:35;;;;;;;14.02;3.20;;;;;;;6.30;100.00;100692.06;4968950;28;20042;-96
2023/11/17 11:04:02;;;;;;;9.43;2.60;;;;;;;6.36;100.00;100703.88;4954321;28;20027;-96
2023/11/17 11:06:30;;;;;;;21.55;3.47;;;;;;;6.36;100.00;100694.22;4950916;28;20094;-96
2023/11/17 11:09:00;;;;;;;16.10;4.38;;;;;;;6.34;100.00;100685.63;4951962;28;20034;-96
2023/11/17 11:12:23;;;;;;;11.75;2.50;;;;;;;6.41;100.00;100699.16;4978881;28;20048;-94
2023/11/17 11:14:49;;;;;;;16.98;3.05;;;;;;;6.42;100.00;100687.69;4949676;28;20130;-94
2023/11/17 11:17:17;;;;;;;21.23;3.65;;;;;;;6.45;100.00;100696.19;4956332;28;20030;-94
2023/11/17 11:19:45;;;;;;;18.80;3.47;;;;;;;6.54;100.00;100685.97;4977892;28;20400;-94
2023/11/17 11:22:12;;;;;;;12.48;2.90;;;;;;;6.58;100.00;100690.91;4912669;28;20043;-94
2023/11/17 11:24:40;;;;;;;15.57;3.03;;;;;;;6.67;100.00;100691.19;4916353;29;20040;-94
2023/11/17 11:27:07;;;;;;;14.18;3.42;;;;;;;6.69;100.00;100692.72;4921500;29;20050;-94
2023/11/17 11:29:38;;;;;;;20.02;4.05;;;;;;;6.72;100.00;100693.47;4922008;29;20046;-94
2023/11/17 11:32:06;;;;;;;20.33;4.20;;;;;;;6.70;100.00;100678.63;4919691;29;20044;-94
2023/11/17 11:34:34;;;;;;;21.27;4.10;;;;;;;6.76;100.00;100674.72;4906508;29;20047;-94
2023/11/17 11:37:03;;;;;;;18.92;4.15;;;;;;;6.82;100.00;100676.06;4935851;29;20040;-94
2023/11/17 11:39:31;;;;;;;15.85;3.88;;;;;;;6.88;100.00;100669.53;4932740;29;20137;-96
2023/11/17 11:42:06;;;;;;;22.65;4.45;;;;;;;6.92;100.00;100660.44;4911883;29;20036;-96
2023/11/17 11:44:34;;;;;;;18.65;3.33;;;;;;;6.97;100.00;100658.31;4922564;29;20054;-96
2023/11/17 11:47:03;;;;;;;15.43;2.53;;;;;;;7.00;100.00;100654.63;4907791;29;20040;-96
2023/11/17 11:49:33;;;;;;;19.52;2.92;;;;;;;7.11;100.00;100666.94;4928506;29;20059;-94
2023/11/17 11:52:09;;;;;;;16.80;2.63;;;;;;;7.18;100.00;100668.16;4935804;29;20031;-95
2023/11/17 11:54:37;;;;;;;;;;;;;;;7.16;100.00;100659.56;4922531;29;20483;-96
2023/11/17 11:57:29;;;;;;;19.73;2.70;;;;;;;7.24;100.00;100658.97;4916868;29;19914;-96
2023/11/17 12:00:12;;;;;;;19.95;3.42;;;;;;;7.31;100.00;100650.47;4932373;29;20031;-94
2023/11/17 12:02:56;;;;;;;17.90;2.95;;;;;;;7.35;100.00;100647.63;4888113;29;20424;-95
2023/11/17 12:05:23;;;;;;;17.02;3.00;;;;;;;7.35;100.00;100647.63;4922928;29;20027;-95
2023/11/17 12:07:49;;;;;;;22.90;3.50;;;;;;;7.35;100.00;100650.25;4920503;29;20518;-95
2023/11/17 12:10:18;;;;;;;22.67;3.40;;;;;;;7.44;100.00;100647.75;4912961;29;20032;-94
2023/11/17 12:12:47;;;;;;;15.60;3.10;;;;;;;7.48;100.00;100639.63;4918924;29;20040;-95
2023/11/17 12:15:13;;;;;;;21.58;3.33;;;;;;;7.45;100.00;100633.63;4942048;29;20022;-96
2023/11/17 12:17:50;;;;;;;12.82;3.00;;;;;;;7.54;100.00;100631.25;4911284;29;20036;-96
2023/11/17 12:20:21;;;;;;;17.77;4.15;;;;;;;7.62;100.00;100630.66;4914980;29;20050;-95
2023/11/17 12:23:01;;;;;;;13.18;2.33;;;;;;;7.67;100.00;100633.75;4927590;29;20049;-95
2023/11/17 12:25:29;;;;;;;11.80;2.40;;;;;;;7.67;100.00;100623.25;4944595;28;20093;-95
2023/11/17 12:27:58;;;;;;;10.80;2.03;;;;;;;7.71;100.00;100621.22;4941633;28;20042;-95
2023/11/17 12:30:29;;;;;;;13.20;2.33;;;;;;;7.71;100.00;100602.78;4939029;28;20043;-96
2023/11/17 12:32:57;;;;;;;17.88;2.50;;;;;;;7.71;100.00;100597.53;4943584;29;20501;-96
2023/11/17 12:35:26;;;;;;;17.23;2.22;;;;;;;7.73;100.00;100596.44;4936847;29;20075;-95
2023/11/17 12:37:52;;;;;;;15.85;2.70;;;;;;;7.81;100.00;100601.09;4952277;28;20028;-94
2023/11/17 12:40:19;;;;;;;25.30;2.70;;;;;;;7.81;100.00;100594.03;4911707;28;20066;-95
2023/11/17 12:42:47;;;;;;;18.85;2.45;;;;;;;7.85;100.00;100597.25;4938981;28;20039;-95
2023/11/17 12:45:13;;;;;;;17.38;2.50;;;;;;;7.86;100.00;100587.56;4928301;29;20039;-95
2023/11/17 12:47:40;;;;;;;23.08;2.00;;;;;;;7.92;100.00;100589.69;4926595;29;20032;-95
2023/11/17 12:56:13;;;;;;;14.18;2.78;;;;;;;7.92;100.00;100579.19;789750;23;20296;-94
2023/11/17 12:58:39;;;;;;;17.10;2.88;;;;;;;7.88;100.00;100569.88;4919763;28;20043;-96